sensor_id;sensor_type;location;lat;lon;timestamp;P1;durP1;ratioP1;P2;durP2;ratioP2
84794;SDS011;75026;49.184;16.564;2023-12-20T00:00:15;8.73;;;5.82;;
84794;SDS011;75026;49.184;16.564;2023-12-20T00:03:36;8.15;;;5.60;;
84794;SDS011;75026;49.184;16.564;2023-12-20T00:06:46;7.43;;;5.80;;
84794;SDS011;75026;49.184;16.564;2023-12-20T00:09:48;8.85;;;5.55;;
84794;SDS011;75026;49.184;16.564;2023-12-20T00:12:49;7.15;;;5.43;;
84794;SDS011;75026;49.184;16.564;2023-12-20T00:15:49;9.52;;;5.63;;
84794;SDS011;75026;49.184;16.564;2023-12-20T00:18:50;7.47;;;5.70;;
84794;SDS011;75026;49.184;16.564;2023-12-20T00:21:51;7.95;;;5.70;;
84794;SDS011;75026;49.184;16.564;2023-12-20T00:24:51;7.90;;;5.50;;
84794;SDS011;75026;49.184;16.564;2023-12-20T00:27:52;7.90;;;5.72;;
84794;SDS011;75026;49.184;16.564;2023-12-20T00:30:53;8.30;;;5.70;;
84794;SDS011;75026;49.184;16.564;2023-12-20T00:33:53;7.63;;;5.53;;
84794;SDS011;75026;49.184;16.564;2023-12-20T00:36:55;7.50;;;5.55;;
84794;SDS011;75026;49.184;16.564;2023-12-20T00:39:55;8.07;;;5.60;;
84794;SDS011;75026;49.184;16.564;2023-12-20T00:42:56;7.70;;;5.68;;
84794;SDS011;75026;49.184;16.564;2023-12-20T00:45:57;7.53;;;5.60;;
84794;SDS011;75026;49.184;16.564;2023-12-20T00:48:58;7.40;;;5.43;;
84794;SDS011;75026;49.184;16.564;2023-12-20T00:51:58;6.97;;;5.20;;
84794;SDS011;75026;49.184;16.564;2023-12-20T00:54:59;8.43;;;5.10;;
84794;SDS011;75026;49.184;16.564;2023-12-20T00:58:00;6.97;;;5.32;;
84794;SDS011;75026;49.184;16.564;2023-12-20T01:01:01;6.60;;;5.20;;
84794;SDS011;75026;49.184;16.564;2023-12-20T01:04:01;8.18;;;5.43;;
84794;SDS011;75026;49.184;16.564;2023-12-20T01:07:02;7.38;;;5.18;;
84794;SDS011;75026;49.184;16.564;2023-12-20T01:10:06;7.07;;;5.25;;
84794;SDS011;75026;49.184;16.564;2023-12-20T01:13:07;7.30;;;5.75;;
84794;SDS011;75026;49.184;16.564;2023-12-20T01:16:10;6.60;;;5.40;;
84794;SDS011;75026;49.184;16.564;2023-12-20T01:19:11;7.70;;;5.40;;
84794;SDS011;75026;49.184;16.564;2023-12-20T01:22:13;8.20;;;5.05;;
84794;SDS011;75026;49.184;16.564;2023-12-20T01:25:14;7.53;;;5.18;;
84794;SDS011;75026;49.184;16.564;2023-12-20T01:28:15;7.63;;;5.13;;
84794;SDS011;75026;49.184;16.564;2023-12-20T01:31:15;7.53;;;5.13;;
84794;SDS011;75026;49.184;16.564;2023-12-20T01:34:17;7.80;;;5.40;;
84794;SDS011;75026;49.184;16.564;2023-12-20T01:37:18;7.03;;;5.00;;
84794;SDS011;75026;49.184;16.564;2023-12-20T01:40:19;7.15;;;5.30;;
84794;SDS011;75026;49.184;16.564;2023-12-20T01:43:20;7.28;;;5.35;;
84794;SDS011;75026;49.184;16.564;2023-12-20T01:46:20;6.63;;;5.07;;
84794;SDS011;75026;49.184;16.564;2023-12-20T01:49:21;6.50;;;4.97;;
84794;SDS011;75026;49.184;16.564;2023-12-20T01:52:22;6.72;;;5.30;;
84794;SDS011;75026;49.184;16.564;2023-12-20T01:58:45;8.80;;;5.50;;
84794;SDS011;75026;49.184;16.564;2023-12-20T02:01:47;7.22;;;5.18;;
84794;SDS011;75026;49.184;16.564;2023-12-20T02:04:48;7.32;;;5.22;;
84794;SDS011;75026;49.184;16.564;2023-12-20T02:07:52;6.80;;;5.20;;
84794;SDS011;75026;49.184;16.564;2023-12-20T02:10:52;7.07;;;5.38;;
84794;SDS011;75026;49.184;16.564;2023-12-20T02:13:54;8.15;;;5.50;;
84794;SDS011;75026;49.184;16.564;2023-12-20T02:16:55;7.00;;;5.03;;
84794;SDS011;75026;49.184;16.564;2023-12-20T02:19:56;7.13;;;5.25;;
84794;SDS011;75026;49.184;16.564;2023-12-20T02:22:56;6.72;;;5.15;;
84794;SDS011;75026;49.184;16.564;2023-12-20T02:25:57;7.30;;;5.30;;
84794;SDS011;75026;49.184;16.564;2023-12-20T02:29:00;7.80;;;5.43;;
84794;SDS011;75026;49.184;16.564;2023-12-20T02:35:03;7.38;;;5.07;;
84794;SDS011;75026;49.184;16.564;2023-12-20T02:38:05;7.75;;;4.78;;
84794;SDS011;75026;49.184;16.564;2023-12-20T02:41:06;6.15;;;4.93;;
84794;SDS011;75026;49.184;16.564;2023-12-20T02:44:06;6.63;;;4.93;;
84794;SDS011;75026;49.184;16.564;2023-12-20T02:47:07;6.72;;;4.93;;
84794;SDS011;75026;49.184;16.564;2023-12-20T02:50:08;6.88;;;5.05;;
84794;SDS011;75026;49.184;16.564;2023-12-20T02:53:08;6.07;;;4.72;;
84794;SDS011;75026;49.184;16.564;2023-12-20T02:56:09;6.63;;;5.00;;
84794;SDS011;75026;49.184;16.564;2023-12-20T02:59:10;7.68;;;5.18;;
84794;SDS011;75026;49.184;16.564;2023-12-20T03:02:14;6.60;;;5.10;;
84794;SDS011;75026;49.184;16.564;2023-12-20T03:05:15;7.53;;;5.00;;
84794;SDS011;75026;49.184;16.564;2023-12-20T03:08:16;6.72;;;5.07;;
84794;SDS011;75026;49.184;16.564;2023-12-20T03:11:16;7.07;;;5.20;;
84794;SDS011;75026;49.184;16.564;2023-12-20T03:14:17;6.97;;;4.50;;
84794;SDS011;75026;49.184;16.564;2023-12-20T03:17:18;6.15;;;5.03;;
84794;SDS011;75026;49.184;16.564;2023-12-20T03:20:20;7.00;;;4.90;;
84794;SDS011;75026;49.184;16.564;2023-12-20T03:23:20;6.05;;;4.65;;
84794;SDS011;75026;49.184;16.564;2023-12-20T03:26:21;7.45;;;4.95;;
84794;SDS011;75026;49.184;16.564;2023-12-20T03:29:23;6.57;;;5.07;;
84794;SDS011;75026;49.184;16.564;2023-12-20T03:32:24;7.47;;;5.40;;
84794;SDS011;75026;49.184;16.564;2023-12-20T03:35:24;7.53;;;5.30;;
84794;SDS011;75026;49.184;16.564;2023-12-20T03:38:25;6.95;;;4.82;;
84794;SDS011;75026;49.184;16.564;2023-12-20T03:41:26;7.18;;;4.85;;
84794;SDS011;75026;49.184;16.564;2023-12-20T03:44:27;6.15;;;4.80;;
84794;SDS011;75026;49.184;16.564;2023-12-20T03:47:27;7.00;;;5.25;;
84794;SDS011;75026;49.184;16.564;2023-12-20T03:50:28;7.00;;;4.88;;
84794;SDS011;75026;49.184;16.564;2023-12-20T03:53:29;6.50;;;5.00;;
84794;SDS011;75026;49.184;16.564;2023-12-20T03:56:30;7.40;;;4.65;;
84794;SDS011;75026;49.184;16.564;2023-12-20T03:59:34;6.60;;;4.90;;
84794;SDS011;75026;49.184;16.564;2023-12-20T04:02:37;7.28;;;5.25;;
84794;SDS011;75026;49.184;16.564;2023-12-20T04:05:38;6.45;;;5.00;;
84794;SDS011;75026;49.184;16.564;2023-12-20T04:08:40;7.57;;;4.80;;
84794;SDS011;75026;49.184;16.564;2023-12-20T04:11:41;5.80;;;4.40;;
84794;SDS011;75026;49.184;16.564;2023-12-20T04:14:41;6.43;;;4.93;;
84794;SDS011;75026;49.184;16.564;2023-12-20T04:17:42;6.40;;;4.40;;
84794;SDS011;75026;49.184;16.564;2023-12-20T04:20:43;5.63;;;4.20;;
84794;SDS011;75026;49.184;16.564;2023-12-20T04:23:43;7.00;;;4.72;;
84794;SDS011;75026;49.184;16.564;2023-12-20T04:26:47;5.63;;;4.43;;
84794;SDS011;75026;49.184;16.564;2023-12-20T04:29:47;6.13;;;4.57;;
84794;SDS011;75026;49.184;16.564;2023-12-20T04:32:48;6.47;;;4.63;;
84794;SDS011;75026;49.184;16.564;2023-12-20T04:35:49;6.35;;;4.70;;
84794;SDS011;75026;49.184;16.564;2023-12-20T04:38:50;5.85;;;4.63;;
84794;SDS011;75026;49.184;16.564;2023-12-20T04:41:50;6.25;;;4.60;;
84794;SDS011;75026;49.184;16.564;2023-12-20T04:44:51;7.22;;;4.50;;
84794;SDS011;75026;49.184;16.564;2023-12-20T04:47:52;6.47;;;4.40;;
84794;SDS011;75026;49.184;16.564;2023-12-20T04:50:54;5.53;;;4.18;;
84794;SDS011;75026;49.184;16.564;2023-12-20T04:53:54;5.38;;;4.25;;
84794;SDS011;75026;49.184;16.564;2023-12-20T04:56:55;6.60;;;4.50;;
84794;SDS011;75026;49.184;16.564;2023-12-20T04:59:56;5.88;;;4.57;;
84794;SDS011;75026;49.184;16.564;2023-12-20T05:02:57;5.90;;;4.50;;
84794;SDS011;75026;49.184;16.564;2023-12-20T05:05:57;6.25;;;4.43;;
84794;SDS011;75026;49.184;16.564;2023-12-20T05:08:58;6.28;;;4.57;;
84794;SDS011;75026;49.184;16.564;2023-12-20T05:11:59;6.75;;;4.50;;
84794;SDS011;75026;49.184;16.564;2023-12-20T05:15:00;8.15;;;4.72;;
84794;SDS011;75026;49.184;16.564;2023-12-20T05:18:01;5.72;;;4.32;;
84794;SDS011;75026;49.184;16.564;2023-12-20T05:21:02;6.03;;;4.70;;
84794;SDS011;75026;49.184;16.564;2023-12-20T05:24:03;6.28;;;4.60;;
84794;SDS011;75026;49.184;16.564;2023-12-20T05:27:04;5.75;;;4.30;;
84794;SDS011;75026;49.184;16.564;2023-12-20T05:30:05;6.15;;;4.43;;
84794;SDS011;75026;49.184;16.564;2023-12-20T05:33:07;5.20;;;4.45;;
84794;SDS011;75026;49.184;16.564;2023-12-20T05:36:07;6.15;;;4.53;;
84794;SDS011;75026;49.184;16.564;2023-12-20T05:39:11;5.82;;;4.43;;
84794;SDS011;75026;49.184;16.564;2023-12-20T05:42:12;5.88;;;4.30;;
84794;SDS011;75026;49.184;16.564;2023-12-20T05:45:14;5.95;;;4.30;;
84794;SDS011;75026;49.184;16.564;2023-12-20T05:48:15;6.30;;;4.60;;
84794;SDS011;75026;49.184;16.564;2023-12-20T05:51:15;6.53;;;4.78;;
84794;SDS011;75026;49.184;16.564;2023-12-20T05:54:16;6.22;;;4.43;;
84794;SDS011;75026;49.184;16.564;2023-12-20T05:57:17;5.93;;;4.40;;
84794;SDS011;75026;49.184;16.564;2023-12-20T06:00:18;6.10;;;4.70;;
84794;SDS011;75026;49.184;16.564;2023-12-20T06:03:18;6.20;;;4.40;;
84794;SDS011;75026;49.184;16.564;2023-12-20T06:06:19;6.70;;;4.80;;
84794;SDS011;75026;49.184;16.564;2023-12-20T06:09:20;6.00;;;4.30;;
84794;SDS011;75026;49.184;16.564;2023-12-20T06:12:21;6.03;;;4.63;;
84794;SDS011;75026;49.184;16.564;2023-12-20T06:15:21;5.63;;;4.35;;
84794;SDS011;75026;49.184;16.564;2023-12-20T06:18:22;5.65;;;4.28;;
84794;SDS011;75026;49.184;16.564;2023-12-20T06:21:23;5.90;;;4.30;;
84794;SDS011;75026;49.184;16.564;2023-12-20T06:24:24;6.47;;;4.80;;
84794;SDS011;75026;49.184;16.564;2023-12-20T06:27:28;6.10;;;4.60;;
84794;SDS011;75026;49.184;16.564;2023-12-20T06:30:29;5.65;;;4.40;;
84794;SDS011;75026;49.184;16.564;2023-12-20T06:33:30;6.22;;;4.70;;
84794;SDS011;75026;49.184;16.564;2023-12-20T06:36:31;6.65;;;4.32;;
84794;SDS011;75026;49.184;16.564;2023-12-20T06:39:32;6.70;;;4.47;;
84794;SDS011;75026;49.184;16.564;2023-12-20T06:42:34;6.35;;;4.47;;
84794;SDS011;75026;49.184;16.564;2023-12-20T06:45:35;7.43;;;4.35;;
84794;SDS011;75026;49.184;16.564;2023-12-20T06:48:35;7.30;;;4.60;;
84794;SDS011;75026;49.184;16.564;2023-12-20T06:51:36;6.78;;;4.18;;
84794;SDS011;75026;49.184;16.564;2023-12-20T06:54:37;6.25;;;4.50;;
84794;SDS011;75026;49.184;16.564;2023-12-20T06:57:37;5.95;;;4.50;;
84794;SDS011;75026;49.184;16.564;2023-12-20T07:00:38;9.68;;;4.60;;
84794;SDS011;75026;49.184;16.564;2023-12-20T07:03:39;8.60;;;5.22;;
84794;SDS011;75026;49.184;16.564;2023-12-20T07:06:42;10.40;;;5.45;;
84794;SDS011;75026;49.184;16.564;2023-12-20T07:09:43;12.63;;;5.55;;
84794;SDS011;75026;49.184;16.564;2023-12-20T07:12:44;8.18;;;5.25;;
84794;SDS011;75026;49.184;16.564;2023-12-20T07:15:45;8.60;;;5.30;;
84794;SDS011;75026;49.184;16.564;2023-12-20T07:18:46;9.10;;;5.50;;
84794;SDS011;75026;49.184;16.564;2023-12-20T07:21:48;8.90;;;5.53;;
84794;SDS011;75026;49.184;16.564;2023-12-20T07:24:50;7.72;;;5.40;;
84794;SDS011;75026;49.184;16.564;2023-12-20T07:27:56;6.82;;;5.40;;
84794;SDS011;75026;49.184;16.564;2023-12-20T07:30:56;6.40;;;5.07;;
84794;SDS011;75026;49.184;16.564;2023-12-20T07:33:57;8.70;;;5.68;;
84794;SDS011;75026;49.184;16.564;2023-12-20T07:36:58;8.80;;;5.40;;
84794;SDS011;75026;49.184;16.564;2023-12-20T07:40:16;7.57;;;5.40;;
84794;SDS011;75026;49.184;16.564;2023-12-20T07:43:17;8.90;;;5.18;;
84794;SDS011;75026;49.184;16.564;2023-12-20T07:46:18;7.72;;;5.10;;
84794;SDS011;75026;49.184;16.564;2023-12-20T07:49:22;10.80;;;7.68;;
84794;SDS011;75026;49.184;16.564;2023-12-20T07:52:24;14.88;;;9.95;;
84794;SDS011;75026;49.184;16.564;2023-12-20T07:55:24;17.17;;;8.70;;
84794;SDS011;75026;49.184;16.564;2023-12-20T07:58:25;17.05;;;8.82;;
84794;SDS011;75026;49.184;16.564;2023-12-20T08:01:26;14.40;;;8.60;;
84794;SDS011;75026;49.184;16.564;2023-12-20T08:04:27;14.52;;;7.80;;
84794;SDS011;75026;49.184;16.564;2023-12-20T08:10:45;14.40;;;8.13;;
84794;SDS011;75026;49.184;16.564;2023-12-20T08:17:21;17.27;;;8.40;;
84794;SDS011;75026;49.184;16.564;2023-12-20T08:20:23;12.10;;;8.00;;
84794;SDS011;75026;49.184;16.564;2023-12-20T08:23:24;10.20;;;7.25;;
84794;SDS011;75026;49.184;16.564;2023-12-20T08:26:24;11.88;;;7.55;;
84794;SDS011;75026;49.184;16.564;2023-12-20T08:29:25;11.07;;;7.32;;
84794;SDS011;75026;49.184;16.564;2023-12-20T08:32:26;12.13;;;7.18;;
84794;SDS011;75026;49.184;16.564;2023-12-20T08:35:27;11.18;;;6.72;;
84794;SDS011;75026;49.184;16.564;2023-12-20T08:38:28;9.38;;;6.82;;
84794;SDS011;75026;49.184;16.564;2023-12-20T08:41:28;10.93;;;6.50;;
84794;SDS011;75026;49.184;16.564;2023-12-20T08:44:29;10.20;;;6.63;;
84794;SDS011;75026;49.184;16.564;2023-12-20T08:47:30;12.95;;;7.35;;
84794;SDS011;75026;49.184;16.564;2023-12-20T08:50:31;14.95;;;6.97;;
84794;SDS011;75026;49.184;16.564;2023-12-20T08:53:31;10.15;;;6.88;;
84794;SDS011;75026;49.184;16.564;2023-12-20T08:56:32;9.75;;;6.68;;
84794;SDS011;75026;49.184;16.564;2023-12-20T08:59:33;14.50;;;7.80;;
84794;SDS011;75026;49.184;16.564;2023-12-20T09:02:33;15.73;;;7.70;;
84794;SDS011;75026;49.184;16.564;2023-12-20T09:05:36;63.40;;;17.27;;
84794;SDS011;75026;49.184;16.564;2023-12-20T09:08:37;51.88;;;14.85;;
84794;SDS011;75026;49.184;16.564;2023-12-20T09:11:38;48.30;;;13.65;;
84794;SDS011;75026;49.184;16.564;2023-12-20T09:14:38;45.03;;;13.68;;
84794;SDS011;75026;49.184;16.564;2023-12-20T09:17:39;45.03;;;12.52;;
84794;SDS011;75026;49.184;16.564;2023-12-20T09:20:41;40.47;;;12.90;;
84794;SDS011;75026;49.184;16.564;2023-12-20T09:23:42;43.60;;;12.20;;
84794;SDS011;75026;49.184;16.564;2023-12-20T09:26:43;35.28;;;11.18;;
84794;SDS011;75026;49.184;16.564;2023-12-20T09:29:44;33.95;;;10.77;;
84794;SDS011;75026;49.184;16.564;2023-12-20T09:32:45;32.30;;;10.63;;
84794;SDS011;75026;49.184;16.564;2023-12-20T09:35:46;28.20;;;10.65;;
84794;SDS011;75026;49.184;16.564;2023-12-20T09:38:47;25.75;;;10.23;;
84794;SDS011;75026;49.184;16.564;2023-12-20T09:42:00;28.00;;;10.63;;
84794;SDS011;75026;49.184;16.564;2023-12-20T09:45:02;26.48;;;10.13;;
84794;SDS011;75026;49.184;16.564;2023-12-20T09:48:04;21.83;;;9.65;;
84794;SDS011;75026;49.184;16.564;2023-12-20T09:51:05;21.27;;;9.50;;
84794;SDS011;75026;49.184;16.564;2023-12-20T09:54:06;24.60;;;9.45;;
84794;SDS011;75026;49.184;16.564;2023-12-20T09:57:07;25.25;;;10.82;;
84794;SDS011;75026;49.184;16.564;2023-12-20T10:00:09;22.35;;;10.52;;
84794;SDS011;75026;49.184;16.564;2023-12-20T10:03:11;24.60;;;10.32;;
84794;SDS011;75026;49.184;16.564;2023-12-20T10:06:14;24.95;;;10.23;;
84794;SDS011;75026;49.184;16.564;2023-12-20T10:09:15;25.73;;;10.27;;
84794;SDS011;75026;49.184;16.564;2023-12-20T10:12:16;28.45;;;10.15;;
84794;SDS011;75026;49.184;16.564;2023-12-20T10:15:17;22.13;;;10.05;;
84794;SDS011;75026;49.184;16.564;2023-12-20T10:18:18;19.58;;;10.27;;
84794;SDS011;75026;49.184;16.564;2023-12-20T10:21:21;31.13;;;10.70;;
84794;SDS011;75026;49.184;16.564;2023-12-20T10:24:23;27.30;;;10.73;;
84794;SDS011;75026;49.184;16.564;2023-12-20T10:27:23;18.92;;;9.88;;
84794;SDS011;75026;49.184;16.564;2023-12-20T10:30:26;22.38;;;9.88;;
84794;SDS011;75026;49.184;16.564;2023-12-20T10:33:28;22.02;;;9.85;;
84794;SDS011;75026;49.184;16.564;2023-12-20T10:36:33;18.98;;;9.50;;
84794;SDS011;75026;49.184;16.564;2023-12-20T10:39:37;17.48;;;9.38;;
84794;SDS011;75026;49.184;16.564;2023-12-20T10:42:42;16.20;;;9.25;;
84794;SDS011;75026;49.184;16.564;2023-12-20T10:45:44;16.90;;;9.27;;
84794;SDS011;75026;49.184;16.564;2023-12-20T10:48:45;17.73;;;9.43;;
84794;SDS011;75026;49.184;16.564;2023-12-20T10:51:47;17.80;;;9.48;;
84794;SDS011;75026;49.184;16.564;2023-12-20T10:54:52;16.45;;;8.95;;
84794;SDS011;75026;49.184;16.564;2023-12-20T10:58:01;16.50;;;8.98;;
84794;SDS011;75026;49.184;16.564;2023-12-20T11:01:07;15.40;;;9.43;;
84794;SDS011;75026;49.184;16.564;2023-12-20T11:04:10;20.63;;;9.35;;
84794;SDS011;75026;49.184;16.564;2023-12-20T11:11:18;14.95;;;8.70;;
84794;SDS011;75026;49.184;16.564;2023-12-20T11:14:08;17.15;;;8.43;;
84794;SDS011;75026;49.184;16.564;2023-12-20T11:17:15;17.40;;;9.20;;
84794;SDS011;75026;49.184;16.564;2023-12-20T11:20:17;15.50;;;8.68;;
84794;SDS011;75026;49.184;16.564;2023-12-20T11:23:18;16.27;;;8.35;;
84794;SDS011;75026;49.184;16.564;2023-12-20T11:26:22;12.95;;;8.23;;
84794;SDS011;75026;49.184;16.564;2023-12-20T11:29:31;18.67;;;8.43;;
84794;SDS011;75026;49.184;16.564;2023-12-20T11:32:36;15.38;;;7.90;;
84794;SDS011;75026;49.184;16.564;2023-12-20T11:35:37;13.48;;;8.38;;
84794;SDS011;75026;49.184;16.564;2023-12-20T11:38:56;17.98;;;8.50;;
84794;SDS011;75026;49.184;16.564;2023-12-20T11:41:57;16.83;;;8.15;;
84794;SDS011;75026;49.184;16.564;2023-12-20T11:45:09;13.32;;;7.78;;
84794;SDS011;75026;49.184;16.564;2023-12-20T11:48:22;13.55;;;7.88;;
84794;SDS011;75026;49.184;16.564;2023-12-20T11:51:23;11.70;;;7.80;;
84794;SDS011;75026;49.184;16.564;2023-12-20T11:54:24;13.60;;;8.10;;
84794;SDS011;75026;49.184;16.564;2023-12-20T11:57:24;13.75;;;8.05;;
84794;SDS011;75026;49.184;16.564;2023-12-20T12:00:25;15.07;;;7.85;;
84794;SDS011;75026;49.184;16.564;2023-12-20T12:03:26;13.52;;;7.60;;
84794;SDS011;75026;49.184;16.564;2023-12-20T12:06:27;11.80;;;7.78;;
84794;SDS011;75026;49.184;16.564;2023-12-20T12:09:28;12.82;;;7.72;;
84794;SDS011;75026;49.184;16.564;2023-12-20T12:12:29;13.95;;;7.43;;
84794;SDS011;75026;49.184;16.564;2023-12-20T12:15:30;13.18;;;7.50;;
84794;SDS011;75026;49.184;16.564;2023-12-20T12:18:31;11.23;;;7.03;;
84794;SDS011;75026;49.184;16.564;2023-12-20T12:21:32;12.23;;;7.53;;
84794;SDS011;75026;49.184;16.564;2023-12-20T12:24:33;9.88;;;6.60;;
84794;SDS011;75026;49.184;16.564;2023-12-20T12:27:33;11.27;;;7.13;;
84794;SDS011;75026;49.184;16.564;2023-12-20T12:30:34;11.88;;;6.70;;
84794;SDS011;75026;49.184;16.564;2023-12-20T12:33:35;11.27;;;7.35;;
84794;SDS011;75026;49.184;16.564;2023-12-20T12:36:35;14.65;;;6.93;;
84794;SDS011;75026;49.184;16.564;2023-12-20T12:39:36;9.60;;;6.70;;
84794;SDS011;75026;49.184;16.564;2023-12-20T12:42:37;10.55;;;7.03;;
84794;SDS011;75026;49.184;16.564;2023-12-20T12:45:38;11.13;;;6.63;;
84794;SDS011;75026;49.184;16.564;2023-12-20T12:48:39;10.20;;;6.60;;
84794;SDS011;75026;49.184;16.564;2023-12-20T12:51:40;10.55;;;7.32;;
84794;SDS011;75026;49.184;16.564;2023-12-20T12:54:40;11.10;;;6.72;;
84794;SDS011;75026;49.184;16.564;2023-12-20T12:57:43;11.40;;;6.85;;
84794;SDS011;75026;49.184;16.564;2023-12-20T13:00:43;10.20;;;6.70;;
84794;SDS011;75026;49.184;16.564;2023-12-20T13:03:44;9.82;;;6.72;;
84794;SDS011;75026;49.184;16.564;2023-12-20T13:06:45;10.15;;;6.55;;
84794;SDS011;75026;49.184;16.564;2023-12-20T13:09:47;10.63;;;6.43;;
84794;SDS011;75026;49.184;16.564;2023-12-20T13:12:48;10.43;;;6.53;;
84794;SDS011;75026;49.184;16.564;2023-12-20T13:15:48;10.10;;;6.57;;
84794;SDS011;75026;49.184;16.564;2023-12-20T13:18:53;10.75;;;6.20;;
84794;SDS011;75026;49.184;16.564;2023-12-20T13:21:53;9.32;;;6.38;;
84794;SDS011;75026;49.184;16.564;2023-12-20T13:24:54;12.32;;;6.03;;
84794;SDS011;75026;49.184;16.564;2023-12-20T13:27:55;11.75;;;6.20;;
84794;SDS011;75026;49.184;16.564;2023-12-20T13:30:56;10.45;;;6.53;;
84794;SDS011;75026;49.184;16.564;2023-12-20T13:33:57;9.02;;;5.97;;
84794;SDS011;75026;49.184;16.564;2023-12-20T13:36:57;8.73;;;5.82;;
84794;SDS011;75026;49.184;16.564;2023-12-20T13:39:58;8.90;;;6.00;;
84794;SDS011;75026;49.184;16.564;2023-12-20T13:42:59;11.73;;;6.00;;
84794;SDS011;75026;49.184;16.564;2023-12-20T13:46:00;10.20;;;6.13;;
84794;SDS011;75026;49.184;16.564;2023-12-20T13:49:01;10.52;;;6.03;;
84794;SDS011;75026;49.184;16.564;2023-12-20T13:52:02;10.20;;;6.22;;
84794;SDS011;75026;49.184;16.564;2023-12-20T13:55:04;8.88;;;5.72;;
84794;SDS011;75026;49.184;16.564;2023-12-20T13:58:08;8.70;;;5.95;;
84794;SDS011;75026;49.184;16.564;2023-12-20T14:01:10;9.88;;;5.88;;
84794;SDS011;75026;49.184;16.564;2023-12-20T14:04:12;8.30;;;5.70;;
84794;SDS011;75026;49.184;16.564;2023-12-20T14:07:12;8.55;;;6.10;;
84794;SDS011;75026;49.184;16.564;2023-12-20T14:10:13;9.70;;;5.60;;
84794;SDS011;75026;49.184;16.564;2023-12-20T14:13:14;9.55;;;6.05;;
84794;SDS011;75026;49.184;16.564;2023-12-20T14:16:15;7.97;;;5.70;;
84794;SDS011;75026;49.184;16.564;2023-12-20T14:19:17;8.82;;;5.60;;
84794;SDS011;75026;49.184;16.564;2023-12-20T14:22:18;9.18;;;5.47;;
84794;SDS011;75026;49.184;16.564;2023-12-20T14:25:18;10.27;;;5.60;;
84794;SDS011;75026;49.184;16.564;2023-12-20T14:28:19;8.88;;;5.45;;
84794;SDS011;75026;49.184;16.564;2023-12-20T14:31:20;8.27;;;5.82;;
84794;SDS011;75026;49.184;16.564;2023-12-20T14:34:21;9.60;;;5.70;;
84794;SDS011;75026;49.184;16.564;2023-12-20T14:37:24;6.95;;;5.10;;
84794;SDS011;75026;49.184;16.564;2023-12-20T14:40:25;9.48;;;5.22;;
84794;SDS011;75026;49.184;16.564;2023-12-20T14:43:26;8.23;;;5.35;;
84794;SDS011;75026;49.184;16.564;2023-12-20T14:46:27;8.77;;;5.43;;
84794;SDS011;75026;49.184;16.564;2023-12-20T14:49:28;8.95;;;5.45;;
84794;SDS011;75026;49.184;16.564;2023-12-20T14:52:29;7.65;;;5.35;;
84794;SDS011;75026;49.184;16.564;2023-12-20T14:55:30;6.82;;;5.03;;
84794;SDS011;75026;49.184;16.564;2023-12-20T14:58:31;7.43;;;5.63;;
84794;SDS011;75026;49.184;16.564;2023-12-20T15:01:32;7.65;;;5.50;;
84794;SDS011;75026;49.184;16.564;2023-12-20T15:04:32;8.98;;;5.03;;
84794;SDS011;75026;49.184;16.564;2023-12-20T15:07:33;9.77;;;5.10;;
84794;SDS011;75026;49.184;16.564;2023-12-20T15:10:35;8.38;;;5.55;;
84794;SDS011;75026;49.184;16.564;2023-12-20T15:13:36;6.70;;;4.93;;
84794;SDS011;75026;49.184;16.564;2023-12-20T15:16:36;7.78;;;5.15;;
84794;SDS011;75026;49.184;16.564;2023-12-20T15:19:37;7.65;;;5.10;;
84794;SDS011;75026;49.184;16.564;2023-12-20T15:22:38;7.40;;;5.05;;
84794;SDS011;75026;49.184;16.564;2023-12-20T15:25:40;6.93;;;4.80;;
84794;SDS011;75026;49.184;16.564;2023-12-20T15:28:41;7.30;;;5.00;;
84794;SDS011;75026;49.184;16.564;2023-12-20T15:31:45;10.68;;;5.13;;
84794;SDS011;75026;49.184;16.564;2023-12-20T15:34:47;9.40;;;4.90;;
84794;SDS011;75026;49.184;16.564;2023-12-20T15:37:47;7.55;;;5.25;;
84794;SDS011;75026;49.184;16.564;2023-12-20T15:40:48;7.70;;;5.10;;
84794;SDS011;75026;49.184;16.564;2023-12-20T15:43:49;6.80;;;4.85;;
84794;SDS011;75026;49.184;16.564;2023-12-20T15:46:51;6.72;;;4.70;;
84794;SDS011;75026;49.184;16.564;2023-12-20T15:49:51;7.25;;;4.85;;
84794;SDS011;75026;49.184;16.564;2023-12-20T15:52:52;6.68;;;4.65;;
84794;SDS011;75026;49.184;16.564;2023-12-20T15:55:53;7.40;;;4.65;;
84794;SDS011;75026;49.184;16.564;2023-12-20T15:58:54;7.05;;;4.78;;
84794;SDS011;75026;49.184;16.564;2023-12-20T16:01:54;6.50;;;4.65;;
84794;SDS011;75026;49.184;16.564;2023-12-20T16:04:55;6.65;;;4.57;;
84794;SDS011;75026;49.184;16.564;2023-12-20T16:07:56;6.85;;;4.90;;
84794;SDS011;75026;49.184;16.564;2023-12-20T16:10:57;8.02;;;5.03;;
84794;SDS011;75026;49.184;16.564;2023-12-20T16:13:58;7.40;;;5.03;;
84794;SDS011;75026;49.184;16.564;2023-12-20T16:16:59;7.78;;;4.97;;
84794;SDS011;75026;49.184;16.564;2023-12-20T16:20:00;7.32;;;4.60;;
84794;SDS011;75026;49.184;16.564;2023-12-20T16:23:01;7.15;;;4.50;;
84794;SDS011;75026;49.184;16.564;2023-12-20T16:26:01;7.07;;;4.45;;
84794;SDS011;75026;49.184;16.564;2023-12-20T16:29:02;6.13;;;4.50;;
84794;SDS011;75026;49.184;16.564;2023-12-20T16:32:03;6.57;;;4.47;;
84794;SDS011;75026;49.184;16.564;2023-12-20T16:35:05;7.07;;;4.50;;
84794;SDS011;75026;49.184;16.564;2023-12-20T16:38:06;6.35;;;4.40;;
84794;SDS011;75026;49.184;16.564;2023-12-20T16:41:06;6.18;;;4.40;;
84794;SDS011;75026;49.184;16.564;2023-12-20T16:44:07;8.50;;;4.70;;
84794;SDS011;75026;49.184;16.564;2023-12-20T16:47:09;5.93;;;4.15;;
84794;SDS011;75026;49.184;16.564;2023-12-20T16:50:10;6.85;;;4.55;;
84794;SDS011;75026;49.184;16.564;2023-12-20T16:53:11;6.85;;;4.22;;
84794;SDS011;75026;49.184;16.564;2023-12-20T16:56:12;6.70;;;4.40;;
84794;SDS011;75026;49.184;16.564;2023-12-20T16:59:13;5.35;;;3.92;;
84794;SDS011;75026;49.184;16.564;2023-12-20T17:02:14;5.65;;;4.05;;
84794;SDS011;75026;49.184;16.564;2023-12-20T17:05:15;6.60;;;4.50;;
84794;SDS011;75026;49.184;16.564;2023-12-20T17:08:15;5.38;;;3.88;;
84794;SDS011;75026;49.184;16.564;2023-12-20T17:11:16;6.15;;;4.40;;
84794;SDS011;75026;49.184;16.564;2023-12-20T17:14:17;5.95;;;4.10;;
84794;SDS011;75026;49.184;16.564;2023-12-20T17:17:18;6.07;;;4.15;;
84794;SDS011;75026;49.184;16.564;2023-12-20T17:20:18;6.45;;;4.60;;
84794;SDS011;75026;49.184;16.564;2023-12-20T17:23:19;20.20;;;4.65;;
84794;SDS011;75026;49.184;16.564;2023-12-20T17:26:20;7.95;;;4.32;;
84794;SDS011;75026;49.184;16.564;2023-12-20T17:29:20;9.60;;;4.90;;
84794;SDS011;75026;49.184;16.564;2023-12-20T17:32:22;16.67;;;5.20;;
84794;SDS011;75026;49.184;16.564;2023-12-20T17:35:23;11.05;;;4.97;;
84794;SDS011;75026;49.184;16.564;2023-12-20T17:38:23;7.15;;;4.60;;
84794;SDS011;75026;49.184;16.564;2023-12-20T17:41:25;8.70;;;4.82;;
84794;SDS011;75026;49.184;16.564;2023-12-20T17:44:26;9.38;;;4.75;;
84794;SDS011;75026;49.184;16.564;2023-12-20T17:47:27;7.55;;;4.65;;
84794;SDS011;75026;49.184;16.564;2023-12-20T17:50:28;8.70;;;4.78;;
84794;SDS011;75026;49.184;16.564;2023-12-20T17:53:28;9.00;;;4.60;;
84794;SDS011;75026;49.184;16.564;2023-12-20T17:56:29;6.45;;;4.22;;
84794;SDS011;75026;49.184;16.564;2023-12-20T17:59:30;7.13;;;4.65;;
84794;SDS011;75026;49.184;16.564;2023-12-20T18:02:31;7.35;;;4.22;;
84794;SDS011;75026;49.184;16.564;2023-12-20T18:05:32;7.05;;;4.20;;